createdAt,value
2022-12-20T00:00:51.073Z,3.10
2022-12-20T00:02:51.048Z,3.20
2022-12-20T00:04:51.089Z,3.20
2022-12-20T00:06:51.017Z,3.20
2022-12-20T00:08:51.021Z,3.20
2022-12-20T00:10:51.045Z,3.20
2022-12-20T00:12:51.026Z,3.10
2022-12-20T00:14:51.061Z,3.10
2022-12-20T00:16:51.057Z,3.00
2022-12-20T00:18:51.023Z,3.00
2022-12-20T00:20:51.019Z,3.10
2022-12-20T00:22:51.057Z,3.10
2022-12-20T00:24:51.028Z,3.10
2022-12-20T00:26:51.045Z,3.20
2022-12-20T00:28:51.029Z,3.30
2022-12-20T00:30:51.043Z,3.40
2022-12-20T00:32:51.044Z,3.40
2022-12-20T00:34:51.101Z,3.50
2022-12-20T00:36:51.062Z,3.50
2022-12-20T00:38:51.045Z,3.40
2022-12-20T00:40:51.164Z,3.40
2022-12-20T00:42:51.028Z,3.40
2022-12-20T00:44:51.072Z,3.30
2022-12-20T00:46:51.100Z,3.30
2022-12-20T00:48:51.066Z,3.30
2022-12-20T00:50:51.066Z,3.20
2022-12-20T00:52:51.074Z,3.20
2022-12-20T00:54:51.150Z,3.30
2022-12-20T00:56:51.037Z,3.20
2022-12-20T00:58:51.050Z,3.20
2022-12-20T01:00:56.132Z,3.20
2022-12-20T01:02:51.143Z,3.10
2022-12-20T01:04:51.046Z,3.10
2022-12-20T01:06:51.071Z,3.10
2022-12-20T01:08:51.273Z,3.00
2022-12-20T01:10:51.066Z,3.00
2022-12-20T01:12:51.106Z,3.00
2022-12-20T01:14:51.046Z,3.00
2022-12-20T01:16:51.094Z,2.90
2022-12-20T01:18:51.063Z,2.90
2022-12-20T01:20:51.070Z,2.90
2022-12-20T01:22:51.168Z,2.90
2022-12-20T01:24:51.054Z,2.90
2022-12-20T01:26:51.080Z,3.00
2022-12-20T01:28:51.067Z,3.00
2022-12-20T01:31:21.129Z,3.00
2022-12-20T01:33:21.096Z,3.00
2022-12-20T01:35:21.065Z,3.00
2022-12-20T01:37:21.068Z,2.80
2022-12-20T01:39:21.086Z,2.80
2022-12-20T01:41:21.099Z,2.80
2022-12-20T01:43:21.088Z,2.70
2022-12-20T01:45:21.077Z,2.80
2022-12-20T01:47:21.064Z,2.90
2022-12-20T01:49:21.154Z,2.90
2022-12-20T01:51:21.168Z,3.00
2022-12-20T01:53:21.119Z,3.00
2022-12-20T01:55:21.105Z,3.10
2022-12-20T01:57:21.114Z,3.20
2022-12-20T01:59:21.143Z,3.20
2022-12-20T02:01:21.197Z,3.20
2022-12-20T02:03:21.195Z,3.40
2022-12-20T02:05:21.077Z,3.50
2022-12-20T02:07:21.176Z,3.50
2022-12-20T02:09:21.161Z,3.60
2022-12-20T02:11:21.072Z,3.60
2022-12-20T02:13:21.107Z,3.70
2022-12-20T02:15:21.093Z,3.70
2022-12-20T02:17:21.099Z,3.70
2022-12-20T02:19:21.098Z,3.80
2022-12-20T02:21:21.116Z,3.80
2022-12-20T02:23:21.258Z,3.90
2022-12-20T02:25:21.104Z,3.90
2022-12-20T02:27:21.087Z,3.90
2022-12-20T02:29:21.283Z,4.00
2022-12-20T02:31:21.126Z,3.90
2022-12-20T02:33:21.150Z,3.90
2022-12-20T02:35:21.159Z,3.90
2022-12-20T02:37:21.104Z,3.90
2022-12-20T02:39:21.162Z,3.90
2022-12-20T02:41:21.285Z,3.80
2022-12-20T02:43:21.179Z,3.80
2022-12-20T02:47:14.457Z,3.70
2022-12-20T02:49:14.533Z,3.80
2022-12-20T02:51:14.465Z,3.80
2022-12-20T02:53:14.553Z,3.80
2022-12-20T02:55:14.460Z,3.80
2022-12-20T02:57:14.618Z,3.70
2022-12-20T02:59:44.449Z,3.50
2022-12-20T03:01:44.521Z,3.50
2022-12-20T03:03:44.489Z,3.60
2022-12-20T03:05:44.562Z,3.60
2022-12-20T03:07:44.454Z,3.60
2022-12-20T03:09:44.530Z,3.60
2022-12-20T03:11:44.465Z,3.60
2022-12-20T03:13:44.439Z,3.60
2022-12-20T03:15:44.463Z,3.50
2022-12-20T03:17:44.516Z,3.50
2022-12-20T03:19:44.475Z,3.50
2022-12-20T03:21:44.476Z,3.50
2022-12-20T03:23:44.485Z,3.60
2022-12-20T03:25:44.493Z,3.70
2022-12-20T03:27:44.498Z,3.70
2022-12-20T03:29:44.467Z,3.70
2022-12-20T03:31:44.531Z,3.80
2022-12-20T03:33:44.478Z,3.70
2022-12-20T03:35:44.481Z,3.70
2022-12-20T03:37:44.497Z,3.60
2022-12-20T03:39:44.490Z,3.70
2022-12-20T03:41:44.535Z,3.70
2022-12-20T03:43:44.495Z,3.70
2022-12-20T03:45:44.455Z,3.70
2022-12-20T03:47:44.514Z,3.70
2022-12-20T03:49:44.568Z,3.70
2022-12-20T03:51:44.499Z,3.60
2022-12-20T03:53:44.596Z,3.50
2022-12-20T03:55:45.705Z,3.50
2022-12-20T03:57:44.481Z,3.50
2022-12-20T03:59:44.477Z,3.40
2022-12-20T04:01:44.610Z,3.40
2022-12-20T04:03:44.647Z,3.40
2022-12-20T04:05:44.507Z,3.30
2022-12-20T04:07:44.504Z,3.20
2022-12-20T04:09:44.590Z,3.10
2022-12-20T04:11:44.472Z,3.10
2022-12-20T04:13:44.530Z,3.10
2022-12-20T04:15:44.551Z,3.10
2022-12-20T04:17:44.493Z,3.20
2022-12-20T04:19:44.571Z,3.20
2022-12-20T04:21:44.483Z,3.20
2022-12-20T04:23:44.616Z,3.20
2022-12-20T04:25:44.510Z,3.30
2022-12-20T04:27:44.524Z,3.40
2022-12-20T04:29:44.504Z,3.40
2022-12-20T04:31:44.560Z,3.40
2022-12-20T04:33:44.518Z,3.40
2022-12-20T04:35:44.484Z,3.40
2022-12-20T04:37:44.498Z,3.50
2022-12-20T04:39:44.531Z,3.50
2022-12-20T04:41:44.536Z,3.50
2022-12-20T04:43:44.532Z,3.60
2022-12-20T04:45:44.518Z,3.70
2022-12-20T04:47:44.512Z,3.80
2022-12-20T04:49:44.517Z,3.80
2022-12-20T04:51:44.508Z,3.80
2022-12-20T04:54:14.616Z,3.80
2022-12-20T04:56:14.500Z,3.90
2022-12-20T04:58:14.504Z,3.90
2022-12-20T05:00:14.547Z,4.00
2022-12-20T05:02:14.592Z,4.00
2022-12-20T05:04:14.568Z,4.00
2022-12-20T05:06:14.664Z,4.30
2022-12-20T05:08:14.533Z,4.40
2022-12-20T05:10:14.518Z,4.40
2022-12-20T05:12:14.538Z,4.50
2022-12-20T05:14:14.526Z,4.60
2022-12-20T05:16:14.574Z,4.70
2022-12-20T05:18:14.520Z,4.80
2022-12-20T05:20:14.539Z,4.80
2022-12-20T05:22:14.638Z,4.90
2022-12-20T05:24:14.642Z,4.90
2022-12-20T05:26:14.527Z,4.90
2022-12-20T05:28:14.543Z,4.80
2022-12-20T05:30:14.541Z,4.80
2022-12-20T05:32:14.540Z,4.70
2022-12-20T05:34:14.519Z,4.70
2022-12-20T05:36:14.525Z,4.60
2022-12-20T05:38:14.523Z,4.60
2022-12-20T05:40:14.531Z,4.40
2022-12-20T05:42:14.542Z,4.40
2022-12-20T05:44:14.536Z,4.40
2022-12-20T05:46:14.588Z,4.40
2022-12-20T05:48:14.594Z,4.40
2022-12-20T05:50:18.692Z,4.30
2022-12-20T05:52:14.533Z,4.20
2022-12-20T05:54:14.543Z,4.10
2022-12-20T05:56:14.576Z,4.00
2022-12-20T05:58:14.543Z,4.00
2022-12-20T06:00:14.581Z,3.90
2022-12-20T06:02:14.736Z,3.80
2022-12-20T06:04:14.658Z,3.80
2022-12-20T06:06:15.347Z,3.80
2022-12-20T06:08:14.571Z,3.90
2022-12-20T06:10:14.675Z,3.90
2022-12-20T06:12:14.680Z,4.10
2022-12-20T06:14:14.621Z,4.10
2022-12-20T06:16:14.642Z,4.10
2022-12-20T06:18:14.643Z,4.20
2022-12-20T06:20:14.636Z,4.20
2022-12-20T06:22:14.583Z,4.20
2022-12-20T06:24:14.664Z,4.20
2022-12-20T06:26:14.559Z,4.20
2022-12-20T06:28:14.620Z,4.20
2022-12-20T06:30:14.613Z,4.20
2022-12-20T06:32:14.564Z,4.30
2022-12-20T06:34:14.573Z,4.30
2022-12-20T06:36:14.564Z,4.30
2022-12-20T06:38:14.730Z,4.30
2022-12-20T06:40:14.584Z,4.30
2022-12-20T06:42:14.602Z,4.40
2022-12-20T06:44:14.585Z,4.40
2022-12-20T06:46:14.558Z,4.40
2022-12-20T06:48:14.649Z,4.50
2022-12-20T06:50:45.607Z,4.40
2022-12-20T06:52:44.589Z,4.50
2022-12-20T06:54:44.604Z,4.60
2022-12-20T06:56:44.599Z,4.70
2022-12-20T06:58:44.631Z,4.70
2022-12-20T07:00:44.661Z,4.70
2022-12-20T07:02:44.725Z,4.80
2022-12-20T07:04:44.734Z,4.80
2022-12-20T07:06:44.575Z,4.80
2022-12-20T07:08:44.693Z,5.20
2022-12-20T07:10:44.587Z,5.30
2022-12-20T07:12:47.799Z,5.50
2022-12-20T07:14:44.619Z,5.50
2022-12-20T07:16:44.935Z,5.50
2022-12-20T07:18:44.665Z,5.60
2022-12-20T07:20:44.678Z,5.50
2022-12-20T07:22:44.683Z,5.50
2022-12-20T07:24:44.617Z,5.50
2022-12-20T07:26:44.734Z,5.50
2022-12-20T07:28:44.612Z,5.60
2022-12-20T07:30:44.704Z,5.60
2022-12-20T07:32:44.753Z,5.60
2022-12-20T07:34:44.687Z,5.60
2022-12-20T07:36:44.688Z,5.60
2022-12-20T07:38:44.695Z,5.60
2022-12-20T07:40:44.614Z,5.50
2022-12-20T07:42:48.243Z,5.50
2022-12-20T07:44:44.636Z,5.50
2022-12-20T07:46:44.690Z,5.50
2022-12-20T07:48:44.718Z,5.50
2022-12-20T07:50:44.635Z,5.60
2022-12-20T07:52:44.632Z,5.60
2022-12-20T07:54:44.619Z,5.60
2022-12-20T07:56:44.637Z,5.60
2022-12-20T07:58:44.657Z,5.60
2022-12-20T08:00:44.654Z,5.60
2022-12-20T08:02:44.894Z,5.60
2022-12-20T08:04:44.760Z,5.60
2022-12-20T08:06:44.770Z,5.60
2022-12-20T08:08:44.716Z,5.50
2022-12-20T08:10:44.668Z,5.50
2022-12-20T08:12:44.639Z,5.50
2022-12-20T08:14:44.673Z,5.40
2022-12-20T08:16:44.679Z,5.40
2022-12-20T08:18:44.696Z,5.40
2022-12-20T08:20:44.702Z,5.40
2022-12-20T08:22:44.793Z,5.40
2022-12-20T08:24:44.629Z,5.50
2022-12-20T08:26:44.644Z,5.50
2022-12-20T08:28:44.657Z,5.50
2022-12-20T08:30:44.733Z,5.60
2022-12-20T08:32:44.901Z,5.60
2022-12-20T08:34:44.747Z,5.50
2022-12-20T08:36:44.852Z,5.60
2022-12-20T08:38:44.652Z,5.70
2022-12-20T08:40:44.752Z,5.70
2022-12-20T08:42:44.654Z,5.70
2022-12-20T08:45:14.695Z,5.70
2022-12-20T08:47:14.653Z,5.80
2022-12-20T08:49:14.694Z,5.70
2022-12-20T08:51:14.686Z,5.70
2022-12-20T08:53:14.778Z,5.70
2022-12-20T08:55:14.744Z,5.70
2022-12-20T08:57:14.644Z,5.60
2022-12-20T08:59:14.666Z,5.70
2022-12-20T09:01:14.681Z,5.70
2022-12-20T09:03:14.726Z,5.80
2022-12-20T09:05:14.638Z,5.90
2022-12-20T09:07:14.699Z,5.90
2022-12-20T09:09:14.737Z,5.90
2022-12-20T09:11:14.797Z,5.90
2022-12-20T09:13:14.785Z,5.90
2022-12-20T09:15:14.671Z,6.00
2022-12-20T09:17:14.816Z,6.20
2022-12-20T09:19:14.783Z,6.20
2022-12-20T09:21:14.728Z,6.20
2022-12-20T09:23:14.746Z,6.20
2022-12-20T09:25:14.836Z,6.20
2022-12-20T09:27:14.715Z,6.20
2022-12-20T09:29:18.147Z,6.20
2022-12-20T09:31:15.016Z,6.20
2022-12-20T09:33:14.838Z,6.20
2022-12-20T09:35:21.037Z,6.20
2022-12-20T09:37:14.807Z,6.20
2022-12-20T09:43:24.139Z,6.20
2022-12-20T09:45:24.287Z,6.20
2022-12-20T09:47:24.199Z,6.20
2022-12-20T09:49:24.170Z,6.20
2022-12-20T09:51:24.167Z,6.10
2022-12-20T09:53:24.184Z,6.00
2022-12-20T09:55:24.114Z,6.10
2022-12-20T09:57:24.092Z,6.10
2022-12-20T09:59:24.169Z,6.10
2022-12-20T10:01:25.541Z,6.10
2022-12-20T10:03:24.366Z,6.10
2022-12-20T10:05:24.324Z,6.20
2022-12-20T10:07:24.196Z,6.20
2022-12-20T10:09:24.217Z,6.20
2022-12-20T10:11:24.241Z,6.30
2022-12-20T10:13:24.129Z,6.20
2022-12-20T10:15:24.104Z,6.20
2022-12-20T10:17:28.908Z,6.30
2022-12-20T10:19:24.220Z,6.40
2022-12-20T10:21:24.093Z,6.40
2022-12-20T10:23:26.673Z,6.40
2022-12-20T10:25:24.133Z,6.40
2022-12-20T10:27:24.133Z,6.40
2022-12-20T10:29:24.418Z,6.40
2022-12-20T10:31:24.299Z,6.60
2022-12-20T10:33:24.336Z,6.60
2022-12-20T10:35:24.207Z,6.60
2022-12-20T10:37:24.103Z,6.70
2022-12-20T10:39:24.208Z,6.80
2022-12-20T10:41:24.157Z,6.80
2022-12-20T10:43:24.128Z,6.80
2022-12-20T10:45:24.170Z,7.00
2022-12-20T10:47:24.103Z,7.20
2022-12-20T10:49:24.187Z,7.60
2022-12-20T10:51:24.218Z,7.90
2022-12-20T10:53:24.147Z,7.90
2022-12-20T10:55:24.352Z,7.80
2022-12-20T10:57:24.180Z,7.90
2022-12-20T10:59:24.156Z,7.90
2022-12-20T11:01:24.301Z,8.00
2022-12-20T11:03:24.281Z,8.00
2022-12-20T11:05:24.295Z,8.00
2022-12-20T11:07:24.221Z,8.00
2022-12-20T11:09:24.238Z,8.00
2022-12-20T11:11:24.161Z,8.00
2022-12-20T11:13:24.149Z,7.90
2022-12-20T11:15:32.804Z,7.80
2022-12-20T11:17:24.140Z,7.70
2022-12-20T11:19:54.145Z,7.70
2022-12-20T11:21:54.131Z,7.60
2022-12-20T11:23:54.140Z,7.50
2022-12-20T11:25:54.137Z,7.50
2022-12-20T11:27:54.182Z,7.50
2022-12-20T11:29:54.158Z,7.50
2022-12-20T11:31:54.372Z,7.60
2022-12-20T11:33:54.164Z,7.60
2022-12-20T11:35:54.243Z,7.60
2022-12-20T11:37:54.239Z,7.60
2022-12-20T11:39:54.252Z,7.70
2022-12-20T11:41:54.167Z,7.70
2022-12-20T11:44:23.943Z,7.70
2022-12-20T11:45:54.149Z,7.70
2022-12-20T11:47:54.157Z,7.70
2022-12-20T11:49:54.242Z,7.70
2022-12-20T11:51:54.246Z,7.70
2022-12-20T11:53:54.184Z,7.70
2022-12-20T11:55:54.170Z,7.80
2022-12-20T11:58:17.658Z,7.80
2022-12-20T11:59:54.148Z,7.70
2022-12-20T12:01:54.311Z,7.50
2022-12-20T12:03:54.242Z,7.50
2022-12-20T12:05:54.158Z,7.40
2022-12-20T12:07:54.170Z,7.30
2022-12-20T12:09:54.283Z,7.20
2022-12-20T12:12:08.779Z,7.20
2022-12-20T12:13:54.212Z,7.20
2022-12-20T12:15:54.217Z,7.00
2022-12-20T12:17:54.160Z,6.90
2022-12-20T12:19:54.254Z,7.00
2022-12-20T12:21:54.264Z,7.00
2022-12-20T12:23:54.223Z,7.20
2022-12-20T12:25:54.177Z,7.20
2022-12-20T12:27:54.315Z,7.20
2022-12-20T12:29:54.221Z,7.20
2022-12-20T12:31:54.259Z,7.20
2022-12-20T12:33:54.187Z,7.20
2022-12-20T12:35:54.188Z,7.20
2022-12-20T12:37:54.264Z,7.30
2022-12-20T12:39:55.229Z,7.30
2022-12-20T12:41:54.185Z,7.30
2022-12-20T12:43:54.218Z,7.40
2022-12-20T12:45:54.269Z,7.40
2022-12-20T12:47:54.209Z,7.40
2022-12-20T12:49:54.228Z,7.40
2022-12-20T12:51:54.209Z,7.50
2022-12-20T12:53:54.188Z,7.60
2022-12-20T12:56:02.604Z,7.80
2022-12-20T12:57:54.207Z,7.80
2022-12-20T12:59:54.247Z,7.80
2022-12-20T13:01:54.540Z,7.80
2022-12-20T13:03:54.245Z,7.70
2022-12-20T13:05:54.210Z,7.70
2022-12-20T13:07:54.200Z,7.70
2022-12-20T13:09:54.301Z,7.70
2022-12-20T13:12:00.378Z,7.70
2022-12-20T13:13:54.231Z,7.60
2022-12-20T13:15:54.253Z,7.60
2022-12-20T13:18:24.267Z,7.60
2022-12-20T13:20:24.258Z,7.70
2022-12-20T13:22:24.349Z,7.80
2022-12-20T13:24:24.240Z,7.80
2022-12-20T13:26:24.231Z,7.80
2022-12-20T13:28:24.492Z,7.80
2022-12-20T13:30:24.289Z,7.80
2022-12-20T13:32:24.214Z,7.80
2022-12-20T13:34:24.208Z,7.80
2022-12-20T13:36:24.288Z,7.90
2022-12-20T13:38:24.310Z,7.90
2022-12-20T13:40:24.208Z,8.10
2022-12-20T13:42:24.224Z,8.20
2022-12-20T13:44:24.251Z,8.20
2022-12-20T13:46:25.377Z,8.20
2022-12-20T13:48:24.236Z,8.30
2022-12-20T13:50:24.227Z,8.40
2022-12-20T13:52:24.250Z,8.40
2022-12-20T13:54:27.301Z,8.30
2022-12-20T13:56:24.324Z,8.30
2022-12-20T13:58:24.244Z,8.30
2022-12-20T14:00:24.249Z,8.40
2022-12-20T14:02:24.400Z,8.40
2022-12-20T14:04:24.278Z,8.40
2022-12-20T14:06:26.786Z,8.40
2022-12-20T14:08:24.246Z,8.40
2022-12-20T14:10:24.228Z,8.20
2022-12-20T14:12:29.906Z,8.10
2022-12-20T14:14:24.229Z,8.10
2022-12-20T14:16:24.298Z,7.90
2022-12-20T14:18:24.237Z,7.80
2022-12-20T14:20:24.318Z,7.70
2022-12-20T14:22:24.353Z,7.60
2022-12-20T14:24:24.244Z,7.60
2022-12-20T14:26:24.353Z,7.50
2022-12-20T14:28:27.501Z,7.40
2022-12-20T14:30:24.242Z,7.30
2022-12-20T14:32:24.269Z,7.30
2022-12-20T14:34:29.327Z,7.30
2022-12-20T14:36:24.331Z,7.30
2022-12-20T14:38:24.378Z,7.30
2022-12-20T14:40:24.422Z,7.40
2022-12-20T14:42:24.309Z,7.40
2022-12-20T14:44:24.305Z,7.30
2022-12-20T14:46:24.322Z,7.30
2022-12-20T14:48:24.368Z,7.30
2022-12-20T14:50:24.325Z,7.40
2022-12-20T14:52:24.400Z,7.40
2022-12-20T14:54:56.217Z,7.40
2022-12-20T14:56:31.314Z,7.50
2022-12-20T14:58:24.377Z,7.50
2022-12-20T15:00:24.276Z,7.50
2022-12-20T15:02:24.467Z,7.50
2022-12-20T15:04:24.336Z,7.40
2022-12-20T15:06:24.422Z,7.40
2022-12-20T15:08:24.260Z,7.50
2022-12-20T15:10:24.264Z,7.50
2022-12-20T15:12:24.269Z,7.50
2022-12-20T15:14:24.468Z,7.50
2022-12-20T15:16:24.393Z,7.30
2022-12-20T15:18:54.319Z,7.30
2022-12-20T15:20:54.301Z,7.20
2022-12-20T15:22:54.358Z,7.20
2022-12-20T15:24:54.430Z,7.20
2022-12-20T15:26:54.412Z,7.20
2022-12-20T15:28:54.401Z,7.20
2022-12-20T15:30:54.332Z,7.20
2022-12-20T15:32:55.974Z,7.20
2022-12-20T15:34:54.423Z,7.20
2022-12-20T15:36:54.383Z,7.10
2022-12-20T15:39:11.815Z,7.00
2022-12-20T15:40:54.297Z,7.00
2022-12-20T15:42:54.284Z,7.00
2022-12-20T15:44:54.310Z,7.00
2022-12-20T15:46:54.544Z,6.80
2022-12-20T15:48:54.295Z,6.60
2022-12-20T15:50:54.296Z,6.50
2022-12-20T15:52:54.300Z,6.50
2022-12-20T15:54:54.299Z,6.50
2022-12-20T15:56:54.313Z,6.40
2022-12-20T15:58:54.434Z,6.40
2022-12-20T16:00:54.313Z,6.40
2022-12-20T16:02:54.645Z,6.40
2022-12-20T16:04:54.307Z,6.50
2022-12-20T16:06:54.375Z,6.50
2022-12-20T16:08:54.355Z,6.50
2022-12-20T16:10:54.498Z,6.50
2022-12-20T16:12:54.312Z,6.40
2022-12-20T16:14:54.326Z,6.40
2022-12-20T16:16:54.385Z,6.40
2022-12-20T16:18:54.412Z,6.40
2022-12-20T16:20:54.301Z,6.40
2022-12-20T16:22:54.415Z,6.30
2022-12-20T16:24:54.399Z,6.20
2022-12-20T16:26:54.509Z,6.30
2022-12-20T16:28:54.318Z,6.20
2022-12-20T16:30:54.308Z,6.20
2022-12-20T16:32:54.378Z,6.20
2022-12-20T16:34:54.343Z,6.20
2022-12-20T16:36:54.460Z,6.00
2022-12-20T16:38:54.379Z,6.10
2022-12-20T16:40:54.437Z,6.10
2022-12-20T16:42:54.515Z,6.00
2022-12-20T16:44:54.442Z,6.10
2022-12-20T16:46:55.202Z,6.20
2022-12-20T16:50:54.482Z,6.20
2022-12-20T16:52:54.396Z,6.20
2022-12-20T16:56:51.140Z,6.30
2022-12-20T16:59:17.989Z,6.30
2022-12-20T17:01:21.240Z,6.20
2022-12-20T17:03:21.239Z,6.20
2022-12-20T17:05:21.162Z,6.10
2022-12-20T17:07:21.197Z,6.10
2022-12-20T17:11:21.163Z,6.20
2022-12-20T17:13:21.169Z,6.20
2022-12-20T17:15:21.171Z,6.20
2022-12-20T17:17:21.332Z,6.20
2022-12-20T17:19:21.696Z,6.20
2022-12-20T17:21:21.252Z,6.10
2022-12-20T17:23:21.245Z,6.10
2022-12-20T17:25:21.161Z,6.00
2022-12-20T17:27:21.179Z,6.00
2022-12-20T17:29:21.204Z,6.00
2022-12-20T17:31:21.263Z,6.00
2022-12-20T17:33:21.198Z,6.10
2022-12-20T17:35:21.224Z,6.10
2022-12-20T17:37:21.666Z,6.10
2022-12-20T17:39:21.283Z,6.20
2022-12-20T17:41:21.275Z,6.30
2022-12-20T17:43:21.305Z,6.40
2022-12-20T17:45:21.276Z,6.40
2022-12-20T17:47:21.232Z,6.40
2022-12-20T17:49:21.228Z,6.70
2022-12-20T17:51:21.247Z,6.80
2022-12-20T17:53:21.292Z,6.70
2022-12-20T17:55:21.695Z,6.70
2022-12-20T17:57:21.293Z,6.70
2022-12-20T17:59:21.193Z,6.70
2022-12-20T18:01:21.347Z,6.80
2022-12-20T18:04:01.688Z,6.70
2022-12-20T18:05:21.244Z,6.70
2022-12-20T18:07:21.280Z,6.60
2022-12-20T18:09:21.281Z,6.40
2022-12-20T18:11:21.307Z,6.30
2022-12-20T18:13:21.322Z,6.30
2022-12-20T18:15:21.207Z,6.20
2022-12-20T18:17:21.275Z,6.20
2022-12-20T18:19:21.265Z,6.10
2022-12-20T18:21:21.279Z,6.10
2022-12-20T18:23:21.317Z,6.10
2022-12-20T18:25:21.347Z,6.20
2022-12-20T18:27:25.276Z,6.20
2022-12-20T18:29:21.240Z,6.30
2022-12-20T18:31:21.315Z,6.40
2022-12-20T18:33:21.805Z,6.40
2022-12-20T18:35:21.272Z,6.40
2022-12-20T18:37:21.277Z,6.40
2022-12-20T18:39:21.346Z,6.40
2022-12-20T18:41:21.325Z,6.40
2022-12-20T18:43:21.320Z,6.40
2022-12-20T18:45:21.261Z,6.40
2022-12-20T18:47:21.246Z,6.40
2022-12-20T18:49:21.290Z,6.40
2022-12-20T18:51:21.300Z,6.40
2022-12-20T18:53:21.318Z,6.30
2022-12-20T18:55:21.210Z,6.20
2022-12-20T18:57:51.408Z,6.00
2022-12-20T18:59:51.332Z,6.00
2022-12-20T19:01:51.311Z,5.90
2022-12-20T19:03:51.343Z,5.80
2022-12-20T19:05:51.294Z,5.80
2022-12-20T19:07:51.296Z,5.80
2022-12-20T19:09:51.348Z,5.80
2022-12-20T19:11:56.656Z,5.80
2022-12-20T19:13:51.341Z,5.80
2022-12-20T19:15:51.252Z,6.00
2022-12-20T19:17:51.285Z,6.00
2022-12-20T19:19:51.297Z,6.00
2022-12-20T19:21:51.307Z,6.00
2022-12-20T19:23:51.343Z,6.00
2022-12-20T19:25:51.341Z,6.00
2022-12-20T19:27:51.358Z,6.00
2022-12-20T19:29:51.376Z,6.00
2022-12-20T19:31:51.384Z,6.10
2022-12-20T19:33:51.311Z,6.10
2022-12-20T19:35:55.995Z,6.00
2022-12-20T19:37:51.328Z,5.90
2022-12-20T19:39:51.316Z,6.00
2022-12-20T19:42:21.463Z,6.00
2022-12-20T19:43:51.405Z,6.00
2022-12-20T19:45:51.350Z,6.00
2022-12-20T19:47:51.318Z,6.00
2022-12-20T19:49:51.328Z,6.10
2022-12-20T19:51:51.358Z,6.10
2022-12-20T19:53:51.330Z,6.10
2022-12-20T19:55:51.266Z,6.10
2022-12-20T19:57:51.356Z,6.10
2022-12-20T19:59:55.740Z,6.00
2022-12-20T20:01:51.461Z,6.00
2022-12-20T20:03:51.373Z,6.10
2022-12-20T20:05:51.339Z,6.10
2022-12-20T20:07:51.345Z,6.20
2022-12-20T20:09:51.358Z,6.20
2022-12-20T20:11:51.374Z,6.20
2022-12-20T20:13:51.390Z,6.10
2022-12-20T20:15:51.322Z,6.10
2022-12-20T20:17:51.340Z,6.10
2022-12-20T20:19:51.313Z,6.10
2022-12-20T20:21:51.332Z,6.10
2022-12-20T20:23:51.373Z,6.10
2022-12-20T20:25:51.376Z,6.10
2022-12-20T20:27:51.319Z,6.10
2022-12-20T20:29:51.398Z,6.10
2022-12-20T20:31:51.374Z,6.00
2022-12-20T20:33:51.314Z,6.00
2022-12-20T20:35:53.776Z,6.00
2022-12-20T20:37:51.379Z,6.00
2022-12-20T20:39:51.360Z,6.00
2022-12-20T20:41:51.389Z,6.20
2022-12-20T20:43:51.359Z,6.40
2022-12-20T20:45:51.321Z,6.40
2022-12-20T20:47:51.332Z,6.40
2022-12-20T20:49:51.325Z,6.40
2022-12-20T20:51:51.338Z,6.40
2022-12-20T20:54:21.383Z,6.40
2022-12-20T20:56:21.287Z,6.30
2022-12-20T20:58:21.292Z,6.30
2022-12-20T21:00:21.451Z,6.20
2022-12-20T21:02:21.466Z,6.10
2022-12-20T21:04:21.357Z,6.00
2022-12-20T21:06:39.125Z,6.00
2022-12-20T21:08:21.389Z,6.00
2022-12-20T21:10:21.495Z,6.00
2022-12-20T21:12:21.551Z,6.00
2022-12-20T21:14:43.355Z,6.00
2022-12-20T21:16:21.380Z,6.00
2022-12-20T21:18:21.391Z,5.90
2022-12-20T21:20:25.983Z,5.90
2022-12-20T21:22:21.365Z,6.00
2022-12-20T21:24:21.432Z,5.90
2022-12-20T21:26:21.441Z,5.90
2022-12-20T21:28:21.593Z,5.90
2022-12-20T21:30:21.355Z,6.00
2022-12-20T21:32:21.344Z,6.00
2022-12-20T21:34:21.352Z,6.00
2022-12-20T21:36:21.406Z,6.00
2022-12-20T21:38:21.428Z,6.20
2022-12-20T21:40:21.423Z,6.20
2022-12-20T21:42:21.434Z,6.30
2022-12-20T21:44:21.350Z,6.30
2022-12-20T21:46:21.359Z,6.30
2022-12-20T21:48:21.655Z,6.40
2022-12-20T21:50:21.375Z,6.40
2022-12-20T21:52:21.578Z,6.50
2022-12-20T21:54:21.387Z,6.50
2022-12-20T21:56:21.318Z,6.50
2022-12-20T21:58:21.432Z,6.50
2022-12-20T22:00:21.395Z,6.50
2022-12-20T22:02:21.444Z,6.50
2022-12-20T22:04:21.364Z,6.50
2022-12-20T22:06:21.398Z,6.50
2022-12-20T22:08:21.390Z,6.50
2022-12-20T22:10:21.516Z,6.40
2022-12-20T22:12:21.303Z,6.60
2022-12-20T22:14:21.467Z,6.60
2022-12-20T22:16:21.573Z,6.60
2022-12-20T22:18:21.365Z,6.60
2022-12-20T22:20:21.382Z,6.60
2022-12-20T22:22:21.406Z,6.60
2022-12-20T22:24:21.339Z,6.60
2022-12-20T22:26:22.043Z,6.60
2022-12-20T22:28:21.438Z,6.60
2022-12-20T22:30:21.457Z,6.60
2022-12-20T22:32:21.369Z,6.60
2022-12-20T22:34:21.380Z,6.50
2022-12-20T22:36:21.408Z,6.50
2022-12-20T22:38:21.445Z,6.50
2022-12-20T22:40:21.432Z,6.50
2022-12-20T22:42:21.481Z,6.50
2022-12-20T22:44:21.352Z,6.50
2022-12-20T22:46:21.681Z,6.60
2022-12-20T22:48:21.418Z,6.70
2022-12-20T22:50:51.474Z,6.70
2022-12-20T22:52:51.375Z,6.80
2022-12-20T22:54:51.359Z,6.80
2022-12-20T22:56:51.454Z,6.80
2022-12-20T22:58:51.356Z,6.70
2022-12-20T23:00:51.498Z,6.60
2022-12-20T23:02:51.606Z,6.60
2022-12-20T23:04:51.337Z,6.60
2022-12-20T23:06:51.410Z,6.50
2022-12-20T23:08:51.541Z,6.40
2022-12-20T23:10:51.455Z,6.40
2022-12-20T23:12:51.684Z,6.30
2022-12-20T23:14:51.558Z,6.30
2022-12-20T23:16:51.586Z,6.20
2022-12-20T23:18:51.508Z,6.20
2022-12-20T23:20:51.469Z,6.20
2022-12-20T23:22:51.430Z,6.20
2022-12-20T23:24:51.367Z,6.10
2022-12-20T23:26:51.418Z,6.20
2022-12-20T23:28:51.426Z,6.20
2022-12-20T23:30:51.379Z,6.20
2022-12-20T23:32:51.455Z,6.20
2022-12-20T23:34:51.438Z,6.30
2022-12-20T23:36:51.435Z,6.30
2022-12-20T23:38:51.424Z,6.40
2022-12-20T23:40:51.356Z,6.40
2022-12-20T23:42:51.352Z,6.40
2022-12-20T23:44:51.829Z,6.40
2022-12-20T23:46:54.853Z,6.50
2022-12-20T23:48:51.447Z,6.60
2022-12-20T23:50:51.442Z,6.60
2022-12-20T23:52:51.515Z,6.60
2022-12-20T23:54:51.437Z,6.70
2022-12-20T23:56:51.432Z,6.70
2022-12-20T23:58:51.498Z,6.70
